createdAt,value
2023-02-13T00:00:38.750Z,18.70
2023-02-13T00:03:05.173Z,16.70
2023-02-13T00:05:31.613Z,19.33
2023-02-13T00:07:58.160Z,18.13
2023-02-13T00:10:24.677Z,17.33
2023-02-13T00:12:51.086Z,17.30
2023-02-13T00:15:17.583Z,18.37
2023-02-13T00:17:44.044Z,21.50
2023-02-13T00:20:11.942Z,20.13
2023-02-13T00:22:39.402Z,18.43
2023-02-13T00:25:07.474Z,19.70
2023-02-13T00:27:33.937Z,19.87
2023-02-13T00:30:03.966Z,19.17
2023-02-13T00:32:30.983Z,19.17
2023-02-13T00:34:58.104Z,18.17
2023-02-13T00:37:25.192Z,18.60
2023-02-13T00:39:52.612Z,19.47
2023-02-13T00:42:20.392Z,19.87
2023-02-13T00:44:46.858Z,21.00
2023-02-13T00:47:14.923Z,20.93
2023-02-13T00:49:41.748Z,21.87
2023-02-13T00:52:08.265Z,21.67
2023-02-13T00:54:34.836Z,20.53
2023-02-13T00:57:01.638Z,21.37
2023-02-13T00:59:28.085Z,20.10
2023-02-13T01:01:54.667Z,18.33
2023-02-13T01:04:21.270Z,20.07
2023-02-13T01:06:48.191Z,20.93
2023-02-13T01:09:14.811Z,19.43
2023-02-13T01:11:41.293Z,18.13
2023-02-13T01:14:07.721Z,19.63
2023-02-13T01:16:34.146Z,21.17
2023-02-13T01:19:00.591Z,20.00
2023-02-13T01:21:27.040Z,18.73
2023-02-13T01:23:53.678Z,21.03
2023-02-13T01:26:22.944Z,18.13
2023-02-13T01:28:54.368Z,21.67
2023-02-13T01:31:21.916Z,18.97
2023-02-13T01:33:50.391Z,21.97
2023-02-13T01:36:17.020Z,24.17
2023-02-13T01:38:43.782Z,26.13
2023-02-13T01:41:10.994Z,21.53
2023-02-13T01:43:50.438Z,25.70
2023-02-13T01:46:23.097Z,25.47
2023-02-13T01:48:52.372Z,22.00
2023-02-13T01:51:24.885Z,20.13
2023-02-13T01:54:01.056Z,21.53
2023-02-13T01:56:31.459Z,20.17
2023-02-13T01:59:01.372Z,22.47
2023-02-13T02:01:29.089Z,20.83
2023-02-13T02:04:00.506Z,20.77
2023-02-13T02:06:39.957Z,21.77
2023-02-13T02:09:12.451Z,23.97
2023-02-13T02:11:48.801Z,24.27
2023-02-13T02:14:15.563Z,22.50
2023-02-13T02:16:42.844Z,20.60
2023-02-13T02:19:19.369Z,23.20
2023-02-13T02:21:59.173Z,22.57
2023-02-13T02:24:55.000Z,21.97
2023-02-13T02:27:58.247Z,21.60
2023-02-13T02:30:52.564Z,22.63
2023-02-13T02:33:33.693Z,20.23
2023-02-13T02:36:22.445Z,23.70
2023-02-13T02:39:00.909Z,24.13
2023-02-13T02:41:42.608Z,25.47
2023-02-13T02:44:32.971Z,22.67
2023-02-13T02:48:00.745Z,22.60
2023-02-13T02:50:39.545Z,25.47
2023-02-13T02:53:09.329Z,25.83
2023-02-13T02:55:54.933Z,23.93
2023-02-13T02:58:51.321Z,24.97
2023-02-13T03:01:43.674Z,23.67
2023-02-13T03:04:45.676Z,24.47
2023-02-13T03:07:16.734Z,22.53
2023-02-13T03:10:07.077Z,21.73
2023-02-13T03:13:04.245Z,23.53
2023-02-13T03:15:32.682Z,21.80
2023-02-13T03:18:18.122Z,22.03
2023-02-13T03:21:29.914Z,22.53
2023-02-13T03:24:07.493Z,22.10
2023-02-13T03:26:51.688Z,21.80
2023-02-13T03:29:50.048Z,23.13
2023-02-13T03:32:31.367Z,19.90
2023-02-13T03:35:39.241Z,21.13
2023-02-13T03:38:15.485Z,20.73
2023-02-13T03:41:20.220Z,19.77
2023-02-13T03:43:52.889Z,20.77
2023-02-13T03:46:20.382Z,21.03
2023-02-13T03:49:07.065Z,19.37
2023-02-13T03:51:39.788Z,20.37
2023-02-13T03:54:17.386Z,22.30
2023-02-13T03:57:03.365Z,22.53
2023-02-13T03:59:34.673Z,22.27
2023-02-13T04:02:13.107Z,20.60
2023-02-13T04:04:58.412Z,20.03
2023-02-13T04:07:32.094Z,19.67
2023-02-13T04:10:01.595Z,19.33
2023-02-13T04:12:57.001Z,20.90
2023-02-13T04:15:34.953Z,23.33
2023-02-13T04:18:13.141Z,22.67
2023-02-13T04:20:40.036Z,21.37
2023-02-13T04:23:12.202Z,21.87
2023-02-13T04:25:41.290Z,19.63
2023-02-13T04:28:08.688Z,18.20
2023-02-13T04:30:35.876Z,20.07
2023-02-13T04:33:02.520Z,19.60
2023-02-13T04:35:28.944Z,17.90
2023-02-13T04:37:55.345Z,18.00
2023-02-13T04:40:21.759Z,19.63
2023-02-13T04:42:49.251Z,15.40
2023-02-13T04:45:16.179Z,17.53
2023-02-13T04:47:43.025Z,21.87
2023-02-13T04:50:09.874Z,16.37
2023-02-13T04:52:36.281Z,18.90
2023-02-13T04:55:02.704Z,17.97
2023-02-13T04:57:29.105Z,16.63
2023-02-13T04:59:55.524Z,21.10
2023-02-13T05:02:21.936Z,22.10
2023-02-13T05:04:48.409Z,20.20
2023-02-13T05:07:15.055Z,19.77
2023-02-13T05:09:41.860Z,22.03
2023-02-13T05:12:08.431Z,23.03
2023-02-13T05:14:35.002Z,20.43
2023-02-13T05:17:02.658Z,19.10
2023-02-13T05:19:29.077Z,21.17
2023-02-13T05:22:14.074Z,20.43
2023-02-13T05:24:40.544Z,17.17
2023-02-13T05:27:06.967Z,19.93
2023-02-13T05:29:33.409Z,21.83
2023-02-13T05:32:00.089Z,25.50
2023-02-13T05:34:28.528Z,27.53
2023-02-13T05:36:55.555Z,24.37
2023-02-13T05:39:22.309Z,23.70
2023-02-13T05:41:49.510Z,20.87
2023-02-13T05:44:16.699Z,20.43
2023-02-13T05:46:45.145Z,17.83
2023-02-13T05:49:13.608Z,20.70
2023-02-13T05:51:40.095Z,19.07
2023-02-13T05:54:06.552Z,17.80
2023-02-13T05:56:32.996Z,16.97
2023-02-13T05:58:59.387Z,16.83
2023-02-13T06:01:26.204Z,17.60
2023-02-13T06:03:52.621Z,18.17
2023-02-13T06:06:19.631Z,17.57
2023-02-13T06:08:46.099Z,17.80
2023-02-13T06:11:12.951Z,18.03
2023-02-13T06:13:40.730Z,18.80
2023-02-13T06:16:08.794Z,16.70
2023-02-13T06:18:35.323Z,19.30
2023-02-13T06:21:03.248Z,15.53
2023-02-13T06:23:30.227Z,17.97
2023-02-13T06:25:57.134Z,18.97
2023-02-13T06:28:23.758Z,17.10
2023-02-13T06:30:50.382Z,17.77
2023-02-13T06:33:17.064Z,17.67
2023-02-13T06:35:43.757Z,16.23
2023-02-13T06:38:10.395Z,17.60
2023-02-13T06:40:36.875Z,13.90
2023-02-13T06:43:03.265Z,17.17
2023-02-13T06:45:29.961Z,16.80
2023-02-13T06:47:56.504Z,16.03
2023-02-13T06:50:22.957Z,16.70
2023-02-13T06:52:51.021Z,16.03
2023-02-13T06:55:18.048Z,17.57
2023-02-13T06:57:44.958Z,15.10
2023-02-13T07:00:14.380Z,17.30
2023-02-13T07:02:41.892Z,18.17
2023-02-13T07:05:09.285Z,18.37
2023-02-13T07:07:36.982Z,16.27
2023-02-13T07:10:04.940Z,22.20
2023-02-13T07:12:33.832Z,14.93
2023-02-13T07:15:00.541Z,20.37
2023-02-13T07:17:27.276Z,18.93
2023-02-13T07:19:53.640Z,18.60
2023-02-13T07:22:20.782Z,18.00
2023-02-13T07:24:47.218Z,19.00
2023-02-13T07:27:13.681Z,19.03
2023-02-13T07:29:40.191Z,17.30
2023-02-13T07:32:07.136Z,19.90
2023-02-13T07:34:33.678Z,19.83
2023-02-13T07:37:00.108Z,18.33
2023-02-13T07:39:27.437Z,15.87
2023-02-13T07:41:53.949Z,15.90
2023-02-13T07:44:25.337Z,22.83
2023-02-13T07:46:51.835Z,18.53
2023-02-13T07:49:18.489Z,21.40
2023-02-13T07:51:45.008Z,17.07
2023-02-13T07:54:11.464Z,17.83
2023-02-13T07:56:38.037Z,16.37
2023-02-13T07:59:06.245Z,16.30
2023-02-13T08:01:33.289Z,16.27
2023-02-13T08:03:59.831Z,20.33
2023-02-13T08:06:26.368Z,18.67
2023-02-13T08:09:12.877Z,19.23
2023-02-13T08:11:54.363Z,18.17
2023-02-13T08:14:25.601Z,18.60
2023-02-13T08:16:54.024Z,17.30
2023-02-13T08:19:20.972Z,18.47
2023-02-13T08:21:47.409Z,21.13
2023-02-13T08:24:13.875Z,18.43
2023-02-13T08:26:40.465Z,17.93
2023-02-13T08:29:07.520Z,17.27
2023-02-13T08:31:34.148Z,18.43
2023-02-13T08:34:00.722Z,19.53
2023-02-13T08:36:29.496Z,15.97
2023-02-13T08:38:56.007Z,17.50
2023-02-13T08:41:23.059Z,17.60
2023-02-13T08:43:50.482Z,18.17
2023-02-13T08:46:19.990Z,17.13
2023-02-13T08:48:46.711Z,17.83
2023-02-13T08:51:14.271Z,19.47
2023-02-13T08:53:42.312Z,19.27
2023-02-13T08:56:09.785Z,14.13
2023-02-13T08:58:36.383Z,16.97
2023-02-13T09:01:07.850Z,17.87
2023-02-13T09:03:35.571Z,16.60
2023-02-13T09:06:02.846Z,16.37
2023-02-13T09:08:29.649Z,15.77
2023-02-13T09:11:02.609Z,20.10
2023-02-13T09:13:34.389Z,17.10
2023-02-13T09:16:02.450Z,16.67
2023-02-13T09:18:28.955Z,16.53
2023-02-13T09:21:02.722Z,16.37
2023-02-13T09:23:34.382Z,15.47
2023-02-13T09:26:06.281Z,14.07
2023-02-13T09:28:34.671Z,17.17
2023-02-13T09:31:08.989Z,14.17
2023-02-13T09:33:35.641Z,13.87
2023-02-13T09:36:20.020Z,16.13
2023-02-13T09:38:56.641Z,12.43
2023-02-13T09:41:34.099Z,14.10
2023-02-13T09:44:35.370Z,13.07
2023-02-13T09:47:14.986Z,14.70
2023-02-13T09:49:46.154Z,16.83
2023-02-13T09:52:12.899Z,12.97
2023-02-13T09:54:39.524Z,12.93
2023-02-13T09:57:31.079Z,12.80
2023-02-13T10:00:15.937Z,12.50
2023-02-13T10:02:54.505Z,12.33
2023-02-13T10:05:45.516Z,12.13
2023-02-13T10:08:53.742Z,12.07
2023-02-13T10:11:20.461Z,10.97
2023-02-13T10:13:55.789Z,14.07
2023-02-13T10:16:39.537Z,11.57
2023-02-13T10:19:13.470Z,10.90
2023-02-13T10:21:56.644Z,11.63
2023-02-13T10:24:47.385Z,9.50
2023-02-13T10:27:32.698Z,9.77
2023-02-13T10:30:05.572Z,9.13
2023-02-13T10:32:34.709Z,8.87
2023-02-13T10:35:04.651Z,9.60
2023-02-13T10:37:31.578Z,7.37
2023-02-13T10:39:58.090Z,7.63
2023-02-13T10:42:41.524Z,7.97
2023-02-13T10:45:49.932Z,11.70
2023-02-13T10:48:39.376Z,8.13
2023-02-13T10:51:19.046Z,12.47
2023-02-13T10:54:20.091Z,11.50
2023-02-13T10:57:05.173Z,8.00
2023-02-13T10:59:51.593Z,12.13
2023-02-13T11:02:30.461Z,8.53
2023-02-13T11:05:10.626Z,9.13
2023-02-13T11:07:39.514Z,9.00
2023-02-13T11:10:18.020Z,9.80
2023-02-13T11:12:45.521Z,9.27
2023-02-13T11:15:25.530Z,10.40
2023-02-13T11:18:00.047Z,9.93
2023-02-13T11:20:38.660Z,7.20
2023-02-13T11:23:25.549Z,9.73
2023-02-13T11:25:59.602Z,11.73
2023-02-13T11:28:28.812Z,10.67
2023-02-13T11:31:27.382Z,10.73
2023-02-13T11:33:54.483Z,10.63
2023-02-13T11:36:29.915Z,9.13
2023-02-13T11:39:18.072Z,11.70
2023-02-13T11:41:46.216Z,11.90
2023-02-13T11:44:32.259Z,12.27
2023-02-13T11:47:01.200Z,10.07
2023-02-13T11:49:34.979Z,14.63
2023-02-13T11:52:06.189Z,12.60
2023-02-13T11:54:38.480Z,11.10
2023-02-13T11:57:28.230Z,9.77
2023-02-13T11:59:54.709Z,8.97
2023-02-13T12:02:29.684Z,11.70
2023-02-13T12:05:16.711Z,8.93
2023-02-13T12:07:45.564Z,8.53
2023-02-13T12:10:15.377Z,8.90
2023-02-13T12:12:47.355Z,8.97
2023-02-13T12:15:35.676Z,8.87
2023-02-13T12:18:30.044Z,9.83
2023-02-13T12:21:29.014Z,9.90
2023-02-13T12:24:29.246Z,8.10
2023-02-13T12:27:12.646Z,9.40
2023-02-13T12:30:27.842Z,11.53
2023-02-13T12:33:20.669Z,11.13
2023-02-13T12:36:24.273Z,9.87
2023-02-13T12:39:13.728Z,12.37
2023-02-13T12:42:17.187Z,11.80
2023-02-13T12:44:49.892Z,10.07
2023-02-13T12:47:28.053Z,9.53
2023-02-13T12:50:18.720Z,11.27
2023-02-13T12:53:02.917Z,9.27
2023-02-13T12:55:54.991Z,11.63
2023-02-13T12:58:47.823Z,10.33
2023-02-13T13:01:33.813Z,10.87
2023-02-13T13:04:06.918Z,11.07
2023-02-13T13:06:47.632Z,9.77
2023-02-13T13:09:22.802Z,12.60
2023-02-13T13:12:22.049Z,10.63
2023-02-13T13:14:59.316Z,12.47
2023-02-13T13:17:43.689Z,12.03
2023-02-13T13:20:47.481Z,12.90
2023-02-13T13:23:21.992Z,11.60
2023-02-13T13:25:53.637Z,10.70
2023-02-13T13:28:26.296Z,10.20
2023-02-13T13:30:53.534Z,12.10
2023-02-13T13:33:22.642Z,12.07
2023-02-13T13:36:03.773Z,12.43
2023-02-13T13:38:51.996Z,11.40
2023-02-13T13:41:27.381Z,12.50
2023-02-13T13:44:31.364Z,12.97
2023-02-13T13:47:02.575Z,13.60
2023-02-13T13:49:53.564Z,12.87
2023-02-13T13:52:32.932Z,16.07
2023-02-13T13:55:02.444Z,13.33
2023-02-13T13:57:41.421Z,14.87
2023-02-13T14:00:13.612Z,13.07
2023-02-13T14:02:42.445Z,13.70
2023-02-13T14:05:23.617Z,12.07
2023-02-13T14:07:56.277Z,13.83
2023-02-13T14:10:25.445Z,12.40
2023-02-13T14:12:57.787Z,13.50
2023-02-13T14:15:39.489Z,12.20
2023-02-13T14:18:14.967Z,13.83
2023-02-13T14:20:50.797Z,12.73
2023-02-13T14:23:36.074Z,12.90
2023-02-13T14:26:17.653Z,12.20
2023-02-13T14:28:50.135Z,12.50
2023-02-13T14:31:51.624Z,16.83
2023-02-13T14:34:26.544Z,15.23
2023-02-13T14:37:42.908Z,15.53
2023-02-13T14:40:18.394Z,13.97
2023-02-13T14:42:51.123Z,13.40
2023-02-13T14:45:22.956Z,14.43
2023-02-13T14:47:55.357Z,13.57
2023-02-13T14:50:52.700Z,14.83
2023-02-13T14:53:26.325Z,15.13
2023-02-13T14:56:01.981Z,16.00
2023-02-13T14:58:32.477Z,14.37
2023-02-13T15:01:37.209Z,13.93
2023-02-13T15:04:12.742Z,14.87
2023-02-13T15:06:43.435Z,16.87
2023-02-13T15:09:20.649Z,16.60
2023-02-13T15:11:47.466Z,14.70
2023-02-13T15:14:25.944Z,17.23
2023-02-13T15:16:57.425Z,15.43
2023-02-13T15:19:25.753Z,14.47
2023-02-13T15:21:56.540Z,17.20
2023-02-13T15:24:23.923Z,15.40
2023-02-13T15:27:00.388Z,15.17
2023-02-13T15:29:35.235Z,16.67
2023-02-13T15:32:25.958Z,15.87
2023-02-13T15:34:52.365Z,16.10
2023-02-13T15:37:24.197Z,18.57
2023-02-13T15:39:50.663Z,17.93
2023-02-13T15:42:17.399Z,16.37
2023-02-13T15:44:47.570Z,16.63
2023-02-13T15:47:26.383Z,18.53
2023-02-13T15:49:53.374Z,16.97
2023-02-13T15:52:28.553Z,16.03
2023-02-13T15:54:56.437Z,16.27
2023-02-13T15:57:24.659Z,18.70
2023-02-13T15:59:53.013Z,17.03
2023-02-13T16:02:33.572Z,18.40
2023-02-13T16:05:02.242Z,17.20
2023-02-13T16:07:30.557Z,16.63
2023-02-13T16:10:34.685Z,15.33
2023-02-13T16:13:04.112Z,18.50
2023-02-13T16:15:33.756Z,18.97
2023-02-13T16:18:00.526Z,16.67
2023-02-13T16:20:30.168Z,18.33
2023-02-13T16:23:05.837Z,14.80
2023-02-13T16:25:37.850Z,15.13
2023-02-13T16:28:18.210Z,16.83
2023-02-13T16:31:04.314Z,14.20
2023-02-13T16:33:32.119Z,15.20
2023-02-13T16:36:01.095Z,15.43
2023-02-13T16:38:42.184Z,16.70
2023-02-13T16:41:25.816Z,16.63
2023-02-13T16:44:03.336Z,14.90
2023-02-13T16:46:40.150Z,16.50
2023-02-13T16:49:09.570Z,13.50
2023-02-13T16:51:38.512Z,12.73
2023-02-13T16:54:16.548Z,15.10
2023-02-13T16:56:56.243Z,12.90
2023-02-13T16:59:34.727Z,13.40
2023-02-13T17:02:16.417Z,13.53
2023-02-13T17:04:50.305Z,15.47
2023-02-13T17:07:31.272Z,12.60
2023-02-13T17:10:03.748Z,14.40
2023-02-13T17:12:31.762Z,15.37
2023-02-13T17:14:59.750Z,14.43
2023-02-13T17:17:28.813Z,16.47
2023-02-13T17:19:55.236Z,13.27
2023-02-13T17:22:31.270Z,15.07
2023-02-13T17:24:59.031Z,17.07
2023-02-13T17:27:26.564Z,17.20
2023-02-13T17:29:53.056Z,14.77
2023-02-13T17:32:23.216Z,15.17
2023-02-13T17:34:50.085Z,13.90
2023-02-13T17:37:20.870Z,14.03
2023-02-13T17:39:48.054Z,13.40
2023-02-13T17:42:32.926Z,15.27
2023-02-13T17:44:59.502Z,12.47
2023-02-13T17:47:26.357Z,12.07
2023-02-13T17:49:59.090Z,13.50
2023-02-13T17:52:31.394Z,14.17
2023-02-13T17:54:57.782Z,15.03
2023-02-13T17:57:24.282Z,12.93
2023-02-13T17:59:51.137Z,12.40
2023-02-13T18:02:22.766Z,12.83
2023-02-13T18:04:50.200Z,11.57
2023-02-13T18:07:20.074Z,12.70
2023-02-13T18:09:47.563Z,13.17
2023-02-13T18:12:22.442Z,12.13
2023-02-13T18:14:50.449Z,12.13
2023-02-13T18:17:18.915Z,12.10
2023-02-13T18:19:46.491Z,11.13
2023-02-13T18:22:13.871Z,12.30
2023-02-13T18:24:42.238Z,11.57
2023-02-13T18:27:11.000Z,14.00
2023-02-13T18:29:37.598Z,14.00
2023-02-13T18:32:06.710Z,12.17
2023-02-13T18:34:35.725Z,12.67
2023-02-13T18:37:02.979Z,13.27
2023-02-13T18:39:29.447Z,13.37
2023-02-13T18:41:56.309Z,13.90
2023-02-13T18:44:28.485Z,12.87
2023-02-13T18:46:55.892Z,14.27
2023-02-13T18:49:22.320Z,14.57
2023-02-13T18:51:48.837Z,14.43
2023-02-13T18:54:16.392Z,14.73
2023-02-13T18:56:42.905Z,16.03
2023-02-13T18:59:09.509Z,18.50
2023-02-13T19:01:36.561Z,17.53
2023-02-13T19:04:04.169Z,19.77
2023-02-13T19:06:31.985Z,22.00
2023-02-13T19:08:59.326Z,18.17
2023-02-13T19:11:27.131Z,19.40
2023-02-13T19:13:55.661Z,19.57
2023-02-13T19:16:23.640Z,21.10
2023-02-13T19:18:55.698Z,17.53
2023-02-13T19:21:24.531Z,17.07
2023-02-13T19:23:51.714Z,18.70
2023-02-13T19:26:20.787Z,17.17
2023-02-13T19:28:48.037Z,14.80
2023-02-13T19:31:18.402Z,15.50
2023-02-13T19:33:45.732Z,16.70
2023-02-13T19:36:15.158Z,15.97
2023-02-13T19:38:43.605Z,14.93
2023-02-13T19:41:17.895Z,16.63
2023-02-13T19:43:53.349Z,16.60
2023-02-13T19:46:28.662Z,17.67
2023-02-13T19:48:55.563Z,16.57
2023-02-13T19:51:24.573Z,17.57
2023-02-13T19:54:01.394Z,20.27
2023-02-13T19:56:29.635Z,18.60
2023-02-13T19:58:57.009Z,17.70
2023-02-13T20:01:25.847Z,18.00
2023-02-13T20:03:53.403Z,17.43
2023-02-13T20:06:24.741Z,17.47
2023-02-13T20:08:52.475Z,18.93
2023-02-13T20:11:20.474Z,24.30
2023-02-13T20:13:47.613Z,27.40
2023-02-13T20:16:16.572Z,31.40
2023-02-13T20:18:43.257Z,28.97
2023-02-13T20:21:12.800Z,30.80
2023-02-13T20:23:39.405Z,26.73
2023-02-13T20:26:07.856Z,22.27
2023-02-13T20:28:34.356Z,20.53
2023-02-13T20:31:01.337Z,18.13
2023-02-13T20:33:28.021Z,18.60
2023-02-13T20:35:55.684Z,17.17
2023-02-13T20:38:22.092Z,17.20
2023-02-13T20:40:48.915Z,18.00
2023-02-13T20:43:15.394Z,16.57
2023-02-13T20:45:42.016Z,17.33
2023-02-13T20:48:08.560Z,18.50
2023-02-13T20:50:35.000Z,17.83
2023-02-13T20:53:02.635Z,19.53
2023-02-13T20:55:29.018Z,18.20
2023-02-13T20:57:55.426Z,18.47
2023-02-13T21:00:22.072Z,19.27
2023-02-13T21:02:49.057Z,20.07
2023-02-13T21:05:15.735Z,21.10
2023-02-13T21:07:42.312Z,25.13
2023-02-13T21:10:10.417Z,20.47
2023-02-13T21:12:36.822Z,19.97
2023-02-13T21:15:03.491Z,20.33
2023-02-13T21:17:29.885Z,19.70
2023-02-13T21:19:56.299Z,23.67
2023-02-13T21:22:22.773Z,21.90
2023-02-13T21:24:50.404Z,19.73
2023-02-13T21:27:16.911Z,19.27
2023-02-13T21:29:43.443Z,21.37
2023-02-13T21:32:10.190Z,20.70
2023-02-13T21:34:36.674Z,19.67
2023-02-13T21:37:03.629Z,18.73
2023-02-13T21:39:30.401Z,18.47
2023-02-13T21:41:56.869Z,18.73
2023-02-13T21:44:23.582Z,16.93
2023-02-13T21:46:50.500Z,18.53
2023-02-13T21:49:18.492Z,20.07
2023-02-13T21:51:46.184Z,19.07
2023-02-13T21:54:13.231Z,20.33
2023-02-13T21:56:41.488Z,18.93
2023-02-13T21:59:08.505Z,15.57
2023-02-13T22:01:45.708Z,18.30
2023-02-13T22:04:12.688Z,16.67
2023-02-13T22:06:40.053Z,13.97
2023-02-13T22:09:09.084Z,15.67
2023-02-13T22:11:36.813Z,16.07
2023-02-13T22:14:05.279Z,16.30
2023-02-13T22:16:34.162Z,18.40
2023-02-13T22:19:00.771Z,19.93
2023-02-13T22:21:30.057Z,22.03
2023-02-13T22:23:56.483Z,23.90
2023-02-13T22:26:27.559Z,22.87
2023-02-13T22:28:55.641Z,23.93
2023-02-13T22:31:25.820Z,22.13
2023-02-13T22:34:09.388Z,26.07
2023-02-13T22:36:40.836Z,22.13
2023-02-13T22:39:09.292Z,27.13
2023-02-13T22:41:35.898Z,25.43
2023-02-13T22:44:02.328Z,21.33
2023-02-13T22:46:33.173Z,23.73
2023-02-13T22:48:59.932Z,26.47
2023-02-13T22:51:29.406Z,21.27
2023-02-13T22:53:57.031Z,25.43
2023-02-13T22:56:24.866Z,26.03
2023-02-13T22:58:51.287Z,26.20
2023-02-13T23:01:20.368Z,24.90
2023-02-13T23:03:47.640Z,22.67
2023-02-13T23:06:15.300Z,27.23
2023-02-13T23:08:42.452Z,24.80
2023-02-13T23:11:30.917Z,28.00
2023-02-13T23:13:57.357Z,25.87
2023-02-13T23:16:49.616Z,25.33
2023-02-13T23:19:16.491Z,27.37
2023-02-13T23:21:43.134Z,27.77
2023-02-13T23:24:10.955Z,26.17
2023-02-13T23:26:37.404Z,27.53
2023-02-13T23:29:03.800Z,25.97
2023-02-13T23:31:30.350Z,23.43
2023-02-13T23:33:56.858Z,27.00
2023-02-13T23:36:23.239Z,25.43
2023-02-13T23:38:49.710Z,22.77
2023-02-13T23:41:16.429Z,22.60
2023-02-13T23:43:42.906Z,23.67
2023-02-13T23:46:09.344Z,25.63
2023-02-13T23:48:35.809Z,24.43
2023-02-13T23:51:02.395Z,21.77
2023-02-13T23:53:28.997Z,24.30
2023-02-13T23:55:55.822Z,24.83
2023-02-13T23:58:22.914Z,22.33
